sensor_id;sensor_type;location;lat;lon;timestamp;temperature;humidity
15630;DHT22;7914;50.842;0.166;2023-02-08T00:00:57;-0.70;99.90
15630;DHT22;7914;50.842;0.166;2023-02-08T00:03:22;0.00;99.90
15630;DHT22;7914;50.842;0.166;2023-02-08T00:05:48;-0.70;99.90
15630;DHT22;7914;50.842;0.166;2023-02-08T00:08:14;-0.60;99.90
15630;DHT22;7914;50.842;0.166;2023-02-08T00:10:40;-0.60;99.90
15630;DHT22;7914;50.842;0.166;2023-02-08T00:13:06;-0.60;99.90
15630;DHT22;7914;50.842;0.166;2023-02-08T00:15:32;-0.60;99.90
15630;DHT22;7914;50.842;0.166;2023-02-08T00:17:57;-0.70;99.90
15630;DHT22;7914;50.842;0.166;2023-02-08T00:20:23;-0.70;99.90
15630;DHT22;7914;50.842;0.166;2023-02-08T00:22:49;-0.70;99.90
15630;DHT22;7914;50.842;0.166;2023-02-08T00:25:14;-0.80;99.90
15630;DHT22;7914;50.842;0.166;2023-02-08T00:27:40;-0.80;99.90
15630;DHT22;7914;50.842;0.166;2023-02-08T00:30:06;-0.80;99.90
15630;DHT22;7914;50.842;0.166;2023-02-08T00:32:32;-0.80;99.90
15630;DHT22;7914;50.842;0.166;2023-02-08T00:34:58;-0.80;99.90
15630;DHT22;7914;50.842;0.166;2023-02-08T00:37:23;-0.80;99.90
15630;DHT22;7914;50.842;0.166;2023-02-08T00:39:49;-0.90;99.90
15630;DHT22;7914;50.842;0.166;2023-02-08T00:42:14;-0.90;99.90
15630;DHT22;7914;50.842;0.166;2023-02-08T00:44:40;-0.90;99.90
15630;DHT22;7914;50.842;0.166;2023-02-08T00:47:06;-0.90;99.90
15630;DHT22;7914;50.842;0.166;2023-02-08T00:49:31;-0.90;99.90
15630;DHT22;7914;50.842;0.166;2023-02-08T00:51:57;-0.90;99.90
15630;DHT22;7914;50.842;0.166;2023-02-08T00:54:23;-0.90;99.90
15630;DHT22;7914;50.842;0.166;2023-02-08T00:56:48;-0.90;99.90
15630;DHT22;7914;50.842;0.166;2023-02-08T00:59:14;-0.80;99.90
15630;DHT22;7914;50.842;0.166;2023-02-08T01:01:40;-0.80;99.90
15630;DHT22;7914;50.842;0.166;2023-02-08T01:04:06;-0.80;99.90
15630;DHT22;7914;50.842;0.166;2023-02-08T01:06:32;-0.80;99.90
15630;DHT22;7914;50.842;0.166;2023-02-08T01:08:58;-0.80;99.90
15630;DHT22;7914;50.842;0.166;2023-02-08T01:11:25;-0.90;99.90
15630;DHT22;7914;50.842;0.166;2023-02-08T01:13:53;-0.90;99.90
15630;DHT22;7914;50.842;0.166;2023-02-08T01:16:26;-1.00;99.90
15630;DHT22;7914;50.842;0.166;2023-02-08T01:18:54;-1.00;99.90
15630;DHT22;7914;50.842;0.166;2023-02-08T01:21:31;-1.10;99.90
15630;DHT22;7914;50.842;0.166;2023-02-08T01:23:58;-1.10;99.90
15630;DHT22;7914;50.842;0.166;2023-02-08T01:26:24;-1.20;99.90
15630;DHT22;7914;50.842;0.166;2023-02-08T01:28:51;-1.20;99.90
15630;DHT22;7914;50.842;0.166;2023-02-08T01:31:20;-1.30;99.90
15630;DHT22;7914;50.842;0.166;2023-02-08T01:33:46;-1.30;99.90
15630;DHT22;7914;50.842;0.166;2023-02-08T01:36:13;-1.40;99.90
15630;DHT22;7914;50.842;0.166;2023-02-08T01:38:39;-1.30;99.90
15630;DHT22;7914;50.842;0.166;2023-02-08T01:41:07;-1.30;99.90
15630;DHT22;7914;50.842;0.166;2023-02-08T01:44:08;-1.30;99.90
15630;DHT22;7914;50.842;0.166;2023-02-08T01:46:52;-1.30;99.90
15630;DHT22;7914;50.842;0.166;2023-02-08T01:49:31;-1.30;99.90
15630;DHT22;7914;50.842;0.166;2023-02-08T01:52:14;-1.30;99.90
15630;DHT22;7914;50.842;0.166;2023-02-08T01:54:47;-1.30;99.90
15630;DHT22;7914;50.842;0.166;2023-02-08T01:57:14;-1.40;99.90
15630;DHT22;7914;50.842;0.166;2023-02-08T01:59:57;-1.40;99.90
15630;DHT22;7914;50.842;0.166;2023-02-08T02:02:24;-1.40;99.90
15630;DHT22;7914;50.842;0.166;2023-02-08T02:04:51;-1.50;99.90
15630;DHT22;7914;50.842;0.166;2023-02-08T02:07:18;-1.50;99.90
15630;DHT22;7914;50.842;0.166;2023-02-08T02:10:16;-1.50;99.90
15630;DHT22;7914;50.842;0.166;2023-02-08T02:12:43;-1.60;99.90
15630;DHT22;7914;50.842;0.166;2023-02-08T02:15:10;-1.60;99.90
15630;DHT22;7914;50.842;0.166;2023-02-08T02:17:36;-1.60;99.90
15630;DHT22;7914;50.842;0.166;2023-02-08T02:29:03;-1.70;99.90
15630;DHT22;7914;50.842;0.166;2023-02-08T02:31:52;-1.70;99.90
15630;DHT22;7914;50.842;0.166;2023-02-08T02:34:36;-1.70;99.90
15630;DHT22;7914;50.842;0.166;2023-02-08T02:46:03;-1.70;99.90
15630;DHT22;7914;50.842;0.166;2023-02-08T02:54:12;-1.80;99.90
15630;DHT22;7914;50.842;0.166;2023-02-08T02:56:42;-1.80;99.90
15630;DHT22;7914;50.842;0.166;2023-02-08T02:59:10;-1.90;99.90
15630;DHT22;7914;50.842;0.166;2023-02-08T03:01:38;-1.90;99.90
15630;DHT22;7914;50.842;0.166;2023-02-08T03:04:12;-1.90;99.90
15630;DHT22;7914;50.842;0.166;2023-02-08T03:15:33;-2.00;99.90
15630;DHT22;7914;50.842;0.166;2023-02-08T03:24:01;-2.00;99.90
15630;DHT22;7914;50.842;0.166;2023-02-08T03:26:48;-1.90;99.90
15630;DHT22;7914;50.842;0.166;2023-02-08T03:29:47;-1.90;99.90
15630;DHT22;7914;50.842;0.166;2023-02-08T03:32:18;-1.90;99.90
15630;DHT22;7914;50.842;0.166;2023-02-08T03:35:02;-2.00;99.90
15630;DHT22;7914;50.842;0.166;2023-02-08T03:37:36;-2.10;99.90
15630;DHT22;7914;50.842;0.166;2023-02-08T03:40:25;-2.10;99.90
15630;DHT22;7914;50.842;0.166;2023-02-08T03:42:54;-2.10;99.90
15630;DHT22;7914;50.842;0.166;2023-02-08T03:45:27;-2.10;99.90
15630;DHT22;7914;50.842;0.166;2023-02-08T03:47:56;-2.20;99.90
15630;DHT22;7914;50.842;0.166;2023-02-08T03:50:24;-2.30;99.90
15630;DHT22;7914;50.842;0.166;2023-02-08T03:52:51;-2.30;99.90
15630;DHT22;7914;50.842;0.166;2023-02-08T03:55:20;-2.30;99.90
15630;DHT22;7914;50.842;0.166;2023-02-08T04:00:19;-2.20;99.90
15630;DHT22;7914;50.842;0.166;2023-02-08T04:03:00;-2.30;99.90
15630;DHT22;7914;50.842;0.166;2023-02-08T04:05:27;-2.30;99.90
15630;DHT22;7914;50.842;0.166;2023-02-08T04:07:53;-2.40;99.90
15630;DHT22;7914;50.842;0.166;2023-02-08T04:10:19;-2.40;99.90
15630;DHT22;7914;50.842;0.166;2023-02-08T04:12:47;-2.40;99.90
15630;DHT22;7914;50.842;0.166;2023-02-08T04:15:13;-2.40;99.90
15630;DHT22;7914;50.842;0.166;2023-02-08T04:17:38;-2.40;99.90
15630;DHT22;7914;50.842;0.166;2023-02-08T04:20:04;-2.40;99.90
15630;DHT22;7914;50.842;0.166;2023-02-08T04:22:30;-2.40;99.90
15630;DHT22;7914;50.842;0.166;2023-02-08T04:24:55;-2.30;99.90
15630;DHT22;7914;50.842;0.166;2023-02-08T04:27:21;-2.30;99.90
15630;DHT22;7914;50.842;0.166;2023-02-08T04:29:47;-2.30;99.90
15630;DHT22;7914;50.842;0.166;2023-02-08T04:32:12;-2.40;99.90
15630;DHT22;7914;50.842;0.166;2023-02-08T04:34:39;-2.40;99.90
15630;DHT22;7914;50.842;0.166;2023-02-08T04:37:06;-2.40;99.90
15630;DHT22;7914;50.842;0.166;2023-02-08T04:39:32;-2.30;99.90
15630;DHT22;7914;50.842;0.166;2023-02-08T04:41:57;-2.30;99.90
15630;DHT22;7914;50.842;0.166;2023-02-08T04:44:23;-2.30;99.90
15630;DHT22;7914;50.842;0.166;2023-02-08T04:46:49;-2.40;99.90
15630;DHT22;7914;50.842;0.166;2023-02-08T04:49:15;-2.40;99.90
15630;DHT22;7914;50.842;0.166;2023-02-08T04:51:41;-2.40;99.90
15630;DHT22;7914;50.842;0.166;2023-02-08T04:54:06;-2.50;99.90
15630;DHT22;7914;50.842;0.166;2023-02-08T04:56:32;-3.00;99.90
15630;DHT22;7914;50.842;0.166;2023-02-08T04:58:58;-2.50;99.90
15630;DHT22;7914;50.842;0.166;2023-02-08T05:01:23;-2.60;99.90
15630;DHT22;7914;50.842;0.166;2023-02-08T05:03:49;-2.70;99.90
15630;DHT22;7914;50.842;0.166;2023-02-08T05:06:15;-2.70;99.90
15630;DHT22;7914;50.842;0.166;2023-02-08T05:08:40;-2.70;99.90
15630;DHT22;7914;50.842;0.166;2023-02-08T05:11:06;-2.70;99.90
15630;DHT22;7914;50.842;0.166;2023-02-08T05:13:32;-2.70;99.90
15630;DHT22;7914;50.842;0.166;2023-02-08T05:15:58;-2.60;99.90
15630;DHT22;7914;50.842;0.166;2023-02-08T05:18:24;-2.60;99.90
15630;DHT22;7914;50.842;0.166;2023-02-08T05:20:58;-2.60;99.90
15630;DHT22;7914;50.842;0.166;2023-02-08T05:23:25;-2.50;99.90
15630;DHT22;7914;50.842;0.166;2023-02-08T05:25:51;-2.50;99.90
15630;DHT22;7914;50.842;0.166;2023-02-08T05:28:17;-2.60;99.90
15630;DHT22;7914;50.842;0.166;2023-02-08T05:30:44;-2.60;99.90
15630;DHT22;7914;50.842;0.166;2023-02-08T05:33:10;-2.70;99.90
15630;DHT22;7914;50.842;0.166;2023-02-08T05:35:35;-2.70;99.90
15630;DHT22;7914;50.842;0.166;2023-02-08T05:38:01;-2.80;99.90
15630;DHT22;7914;50.842;0.166;2023-02-08T05:40:26;-2.80;99.90
15630;DHT22;7914;50.842;0.166;2023-02-08T05:42:52;-2.80;99.90
15630;DHT22;7914;50.842;0.166;2023-02-08T05:45:18;-2.80;99.90
15630;DHT22;7914;50.842;0.166;2023-02-08T05:47:43;-2.80;99.90
15630;DHT22;7914;50.842;0.166;2023-02-08T05:50:12;-2.90;99.90
15630;DHT22;7914;50.842;0.166;2023-02-08T05:52:38;-2.90;99.90
15630;DHT22;7914;50.842;0.166;2023-02-08T05:55:04;-2.80;99.90
15630;DHT22;7914;50.842;0.166;2023-02-08T05:57:30;-2.80;99.90
15630;DHT22;7914;50.842;0.166;2023-02-08T05:59:56;-2.80;99.90
15630;DHT22;7914;50.842;0.166;2023-02-08T06:02:22;-2.80;99.90
15630;DHT22;7914;50.842;0.166;2023-02-08T06:04:47;-2.80;99.90
15630;DHT22;7914;50.842;0.166;2023-02-08T06:07:13;-2.80;99.90
15630;DHT22;7914;50.842;0.166;2023-02-08T06:09:39;-2.90;99.90
15630;DHT22;7914;50.842;0.166;2023-02-08T06:12:05;-2.90;99.90
15630;DHT22;7914;50.842;0.166;2023-02-08T06:14:31;-2.90;99.90
15630;DHT22;7914;50.842;0.166;2023-02-08T06:16:57;-2.90;99.90
15630;DHT22;7914;50.842;0.166;2023-02-08T06:19:23;-2.90;99.90
15630;DHT22;7914;50.842;0.166;2023-02-08T06:21:49;-3.00;99.90
15630;DHT22;7914;50.842;0.166;2023-02-08T06:24:15;-3.00;99.90
15630;DHT22;7914;50.842;0.166;2023-02-08T06:26:41;-3.00;99.90
15630;DHT22;7914;50.842;0.166;2023-02-08T06:29:07;-3.10;99.90
15630;DHT22;7914;50.842;0.166;2023-02-08T06:31:34;-3.10;99.90
15630;DHT22;7914;50.842;0.166;2023-02-08T06:34:00;-3.10;99.90
15630;DHT22;7914;50.842;0.166;2023-02-08T06:36:26;-3.10;99.90
15630;DHT22;7914;50.842;0.166;2023-02-08T06:38:51;-3.10;99.90
15630;DHT22;7914;50.842;0.166;2023-02-08T06:41:17;-3.10;99.90
15630;DHT22;7914;50.842;0.166;2023-02-08T06:43:43;-3.10;99.90
15630;DHT22;7914;50.842;0.166;2023-02-08T06:46:09;-3.10;99.90
15630;DHT22;7914;50.842;0.166;2023-02-08T06:48:34;-3.10;99.90
15630;DHT22;7914;50.842;0.166;2023-02-08T06:51:00;-3.10;99.90
15630;DHT22;7914;50.842;0.166;2023-02-08T06:53:26;-3.10;99.90
15630;DHT22;7914;50.842;0.166;2023-02-08T06:55:52;-3.10;99.90
15630;DHT22;7914;50.842;0.166;2023-02-08T06:58:18;-3.10;99.90
15630;DHT22;7914;50.842;0.166;2023-02-08T07:00:44;-3.10;99.90
15630;DHT22;7914;50.842;0.166;2023-02-08T07:03:11;-3.10;99.90
15630;DHT22;7914;50.842;0.166;2023-02-08T07:05:37;-3.10;99.90
15630;DHT22;7914;50.842;0.166;2023-02-08T07:08:04;-3.20;99.90
15630;DHT22;7914;50.842;0.166;2023-02-08T07:10:30;-3.20;99.90
15630;DHT22;7914;50.842;0.166;2023-02-08T07:12:55;-3.20;99.90
15630;DHT22;7914;50.842;0.166;2023-02-08T07:15:21;-3.20;99.90
15630;DHT22;7914;50.842;0.166;2023-02-08T07:17:47;-3.20;99.90
15630;DHT22;7914;50.842;0.166;2023-02-08T07:20:13;-3.20;99.90
15630;DHT22;7914;50.842;0.166;2023-02-08T07:22:39;-3.20;99.90
15630;DHT22;7914;50.842;0.166;2023-02-08T07:25:06;-3.20;99.90
15630;DHT22;7914;50.842;0.166;2023-02-08T07:27:32;-3.10;99.90
15630;DHT22;7914;50.842;0.166;2023-02-08T07:29:58;-3.10;99.90
15630;DHT22;7914;50.842;0.166;2023-02-08T07:32:24;-3.10;99.90
15630;DHT22;7914;50.842;0.166;2023-02-08T07:34:50;-3.10;99.90
15630;DHT22;7914;50.842;0.166;2023-02-08T07:37:15;-3.10;99.90
15630;DHT22;7914;50.842;0.166;2023-02-08T07:39:41;-3.10;99.90
15630;DHT22;7914;50.842;0.166;2023-02-08T07:42:10;-3.00;99.90
15630;DHT22;7914;50.842;0.166;2023-02-08T07:44:36;-3.10;99.90
15630;DHT22;7914;50.842;0.166;2023-02-08T07:47:03;-3.10;99.90
15630;DHT22;7914;50.842;0.166;2023-02-08T07:49:29;-3.10;99.90
15630;DHT22;7914;50.842;0.166;2023-02-08T07:51:55;-3.00;99.90
15630;DHT22;7914;50.842;0.166;2023-02-08T07:54:21;-3.10;99.90
15630;DHT22;7914;50.842;0.166;2023-02-08T07:56:46;-2.90;99.90
15630;DHT22;7914;50.842;0.166;2023-02-08T07:59:12;-2.80;99.90
15630;DHT22;7914;50.842;0.166;2023-02-08T08:01:39;-2.70;99.90
15630;DHT22;7914;50.842;0.166;2023-02-08T08:04:04;-2.60;99.90
15630;DHT22;7914;50.842;0.166;2023-02-08T08:06:30;-2.50;99.90
15630;DHT22;7914;50.842;0.166;2023-02-08T08:08:56;-2.30;99.90
15630;DHT22;7914;50.842;0.166;2023-02-08T08:11:22;-2.10;99.90
15630;DHT22;7914;50.842;0.166;2023-02-08T08:13:48;-2.10;99.90
15630;DHT22;7914;50.842;0.166;2023-02-08T08:16:14;-2.00;99.90
15630;DHT22;7914;50.842;0.166;2023-02-08T08:18:41;-1.90;99.90
15630;DHT22;7914;50.842;0.166;2023-02-08T08:21:07;-1.70;99.90
15630;DHT22;7914;50.842;0.166;2023-02-08T08:23:33;-1.60;99.90
15630;DHT22;7914;50.842;0.166;2023-02-08T08:26:09;-1.50;99.90
15630;DHT22;7914;50.842;0.166;2023-02-08T08:28:35;-1.50;99.90
15630;DHT22;7914;50.842;0.166;2023-02-08T08:31:01;-1.40;99.90
15630;DHT22;7914;50.842;0.166;2023-02-08T08:33:27;-1.30;99.90
15630;DHT22;7914;50.842;0.166;2023-02-08T08:35:53;-1.30;99.90
15630;DHT22;7914;50.842;0.166;2023-02-08T08:38:19;-1.30;99.90
15630;DHT22;7914;50.842;0.166;2023-02-08T08:40:44;-1.10;99.90
15630;DHT22;7914;50.842;0.166;2023-02-08T08:43:10;-1.20;99.90
15630;DHT22;7914;50.842;0.166;2023-02-08T08:45:36;-0.90;99.90
15630;DHT22;7914;50.842;0.166;2023-02-08T08:48:03;-0.80;99.90
15630;DHT22;7914;50.842;0.166;2023-02-08T08:50:28;-0.70;99.90
15630;DHT22;7914;50.842;0.166;2023-02-08T08:52:54;-0.60;99.90
15630;DHT22;7914;50.842;0.166;2023-02-08T08:55:20;-0.50;99.90
15630;DHT22;7914;50.842;0.166;2023-02-08T08:57:46;-0.40;99.90
15630;DHT22;7914;50.842;0.166;2023-02-08T09:00:12;-0.30;99.90
15630;DHT22;7914;50.842;0.166;2023-02-08T09:02:37;-0.10;99.90
15630;DHT22;7914;50.842;0.166;2023-02-08T09:05:03;0.00;99.90
15630;DHT22;7914;50.842;0.166;2023-02-08T09:07:32;0.10;99.90
15630;DHT22;7914;50.842;0.166;2023-02-08T09:09:58;0.20;99.90
15630;DHT22;7914;50.842;0.166;2023-02-08T09:12:23;0.30;99.90
15630;DHT22;7914;50.842;0.166;2023-02-08T09:14:49;0.40;99.90
15630;DHT22;7914;50.842;0.166;2023-02-08T09:17:15;0.50;99.90
15630;DHT22;7914;50.842;0.166;2023-02-08T09:19:40;0.50;99.90
15630;DHT22;7914;50.842;0.166;2023-02-08T09:22:07;0.60;99.90
15630;DHT22;7914;50.842;0.166;2023-02-08T09:24:33;0.70;99.90
15630;DHT22;7914;50.842;0.166;2023-02-08T09:26:59;0.90;99.90
15630;DHT22;7914;50.842;0.166;2023-02-08T09:29:24;1.60;99.90
15630;DHT22;7914;50.842;0.166;2023-02-08T09:31:54;1.10;89.90
15630;DHT22;7914;50.842;0.166;2023-02-08T09:34:19;1.10;99.90
15630;DHT22;7914;50.842;0.166;2023-02-08T09:36:45;1.10;99.90
15630;DHT22;7914;50.842;0.166;2023-02-08T09:39:17;1.20;99.90
15630;DHT22;7914;50.842;0.166;2023-02-08T09:42:13;1.40;98.10
15630;DHT22;7914;50.842;0.166;2023-02-08T09:47:35;1.50;69.10
15630;DHT22;7914;50.842;0.166;2023-02-08T09:52:54;1.80;89.90
15630;DHT22;7914;50.842;0.166;2023-02-08T09:57:50;1.90;59.80
15630;DHT22;7914;50.842;0.166;2023-02-08T10:00:30;2.00;39.80
15630;DHT22;7914;50.842;0.166;2023-02-08T10:02:58;2.00;18.30
15630;DHT22;7914;50.842;0.166;2023-02-08T10:05:25;2.20;11.00
15630;DHT22;7914;50.842;0.166;2023-02-08T10:07:52;2.30;11.90
15630;DHT22;7914;50.842;0.166;2023-02-08T10:10:42;2.30;1.00
15630;DHT22;7914;50.842;0.166;2023-02-08T10:19:39;2.80;1.00
15630;DHT22;7914;50.842;0.166;2023-02-08T10:30:37;3.50;1.00
15630;DHT22;7914;50.842;0.166;2023-02-08T10:33:16;3.60;1.00
15630;DHT22;7914;50.842;0.166;2023-02-08T10:35:45;3.60;1.00
15630;DHT22;7914;50.842;0.166;2023-02-08T10:38:22;3.70;1.00
15630;DHT22;7914;50.842;0.166;2023-02-08T10:40:52;3.90;1.00
15630;DHT22;7914;50.842;0.166;2023-02-08T10:46:03;4.30;1.00
15630;DHT22;7914;50.842;0.166;2023-02-08T10:48:47;4.30;1.00
15630;DHT22;7914;50.842;0.166;2023-02-08T10:51:17;4.30;1.00
15630;DHT22;7914;50.842;0.166;2023-02-08T10:53:44;4.20;1.00
15630;DHT22;7914;50.842;0.166;2023-02-08T10:58:51;4.30;1.00
15630;DHT22;7914;50.842;0.166;2023-02-08T11:01:17;4.30;1.00
15630;DHT22;7914;50.842;0.166;2023-02-08T11:04:06;4.60;1.00
15630;DHT22;7914;50.842;0.166;2023-02-08T11:06:32;4.70;1.00
15630;DHT22;7914;50.842;0.166;2023-02-08T11:08:57;5.40;1.00
15630;DHT22;7914;50.842;0.166;2023-02-08T11:11:25;4.70;1.00
15630;DHT22;7914;50.842;0.166;2023-02-08T11:14:08;4.90;1.00
15630;DHT22;7914;50.842;0.166;2023-02-08T11:16:35;5.00;1.00
15630;DHT22;7914;50.842;0.166;2023-02-08T11:19:03;5.10;1.00
15630;DHT22;7914;50.842;0.166;2023-02-08T11:21:34;5.30;1.00
15630;DHT22;7914;50.842;0.166;2023-02-08T11:27:18;5.60;1.00
15630;DHT22;7914;50.842;0.166;2023-02-08T11:30:19;5.80;1.00
15630;DHT22;7914;50.842;0.166;2023-02-08T11:32:47;5.70;1.00
15630;DHT22;7914;50.842;0.166;2023-02-08T11:35:24;5.80;1.00
15630;DHT22;7914;50.842;0.166;2023-02-08T11:37:52;5.90;1.00
15630;DHT22;7914;50.842;0.166;2023-02-08T11:40:22;6.00;1.00
15630;DHT22;7914;50.842;0.166;2023-02-08T11:42:49;6.20;1.00
15630;DHT22;7914;50.842;0.166;2023-02-08T11:45:28;6.20;1.00
15630;DHT22;7914;50.842;0.166;2023-02-08T11:47:55;6.30;1.00
15630;DHT22;7914;50.842;0.166;2023-02-08T11:50:30;6.30;1.00
15630;DHT22;7914;50.842;0.166;2023-02-08T11:53:04;6.40;1.00
15630;DHT22;7914;50.842;0.166;2023-02-08T11:55:32;6.30;1.00
15630;DHT22;7914;50.842;0.166;2023-02-08T12:00:29;6.50;1.00
15630;DHT22;7914;50.842;0.166;2023-02-08T12:03:24;6.50;1.00
15630;DHT22;7914;50.842;0.166;2023-02-08T12:11:40;6.60;99.90
15630;DHT22;7914;50.842;0.166;2023-02-08T12:17:24;6.60;1.00
15630;DHT22;7914;50.842;0.166;2023-02-08T12:22:28;6.60;1.00
15630;DHT22;7914;50.842;0.166;2023-02-08T12:24:58;6.50;99.90
15630;DHT22;7914;50.842;0.166;2023-02-08T12:28:02;6.50;99.90
15630;DHT22;7914;50.842;0.166;2023-02-08T12:30:34;6.50;99.90
15630;DHT22;7914;50.842;0.166;2023-02-08T12:33:23;6.50;1.00
15630;DHT22;7914;50.842;0.166;2023-02-08T12:35:58;6.40;1.00
15630;DHT22;7914;50.842;0.166;2023-02-08T12:38:37;6.50;1.00
15630;DHT22;7914;50.842;0.166;2023-02-08T12:41:33;6.50;1.00
15630;DHT22;7914;50.842;0.166;2023-02-08T12:57:21;6.50;1.00
15630;DHT22;7914;50.842;0.166;2023-02-08T13:03:04;6.50;99.90
15630;DHT22;7914;50.842;0.166;2023-02-08T13:05:39;6.50;99.90
15630;DHT22;7914;50.842;0.166;2023-02-08T13:11:09;6.40;99.90
15630;DHT22;7914;50.842;0.166;2023-02-08T13:13:37;6.50;99.90
15630;DHT22;7914;50.842;0.166;2023-02-08T13:16:12;6.70;99.90
15630;DHT22;7914;50.842;0.166;2023-02-08T13:18:47;6.50;99.90
15630;DHT22;7914;50.842;0.166;2023-02-08T13:21:23;6.40;1.00
15630;DHT22;7914;50.842;0.166;2023-02-08T13:23:49;6.40;1.00
15630;DHT22;7914;50.842;0.166;2023-02-08T13:28:49;6.50;1.00
15630;DHT22;7914;50.842;0.166;2023-02-08T13:31:31;6.50;1.00
15630;DHT22;7914;50.842;0.166;2023-02-08T13:34:02;6.30;99.90
15630;DHT22;7914;50.842;0.166;2023-02-08T13:36:38;6.40;1.00
15630;DHT22;7914;50.842;0.166;2023-02-08T13:39:07;6.40;99.90
15630;DHT22;7914;50.842;0.166;2023-02-08T13:41:34;6.40;1.00
15630;DHT22;7914;50.842;0.166;2023-02-08T13:44:07;6.40;99.90
15630;DHT22;7914;50.842;0.166;2023-02-08T13:46:46;6.40;99.90
15630;DHT22;7914;50.842;0.166;2023-02-08T13:52:03;6.30;1.00
15630;DHT22;7914;50.842;0.166;2023-02-08T13:54:28;6.30;1.00
15630;DHT22;7914;50.842;0.166;2023-02-08T13:56:54;7.00;1.00
15630;DHT22;7914;50.842;0.166;2023-02-08T13:59:36;6.20;1.00
15630;DHT22;7914;50.842;0.166;2023-02-08T14:04:42;6.30;99.90
15630;DHT22;7914;50.842;0.166;2023-02-08T14:12:55;6.40;99.90
15630;DHT22;7914;50.842;0.166;2023-02-08T14:15:37;6.30;99.90
15630;DHT22;7914;50.842;0.166;2023-02-08T14:18:35;6.30;1.00
15630;DHT22;7914;50.842;0.166;2023-02-08T14:21:05;6.30;99.90
15630;DHT22;7914;50.842;0.166;2023-02-08T14:23:35;6.30;99.90
15630;DHT22;7914;50.842;0.166;2023-02-08T14:26:07;6.30;99.90
15630;DHT22;7914;50.842;0.166;2023-02-08T14:28:37;6.40;99.90
15630;DHT22;7914;50.842;0.166;2023-02-08T14:31:07;6.30;99.90
15630;DHT22;7914;50.842;0.166;2023-02-08T14:33:37;6.40;24.20
15630;DHT22;7914;50.842;0.166;2023-02-08T14:36:06;6.30;53.20
15630;DHT22;7914;50.842;0.166;2023-02-08T14:41:42;6.30;1.00
15630;DHT22;7914;50.842;0.166;2023-02-08T14:49:42;6.20;1.00
15630;DHT22;7914;50.842;0.166;2023-02-08T14:52:20;6.20;99.90
15630;DHT22;7914;50.842;0.166;2023-02-08T14:54:54;6.20;1.00
15630;DHT22;7914;50.842;0.166;2023-02-08T14:57:26;6.20;1.00
15630;DHT22;7914;50.842;0.166;2023-02-08T14:59:54;6.20;1.00
15630;DHT22;7914;50.842;0.166;2023-02-08T15:02:21;6.10;1.00
15630;DHT22;7914;50.842;0.166;2023-02-08T15:04:50;6.10;1.00
15630;DHT22;7914;50.842;0.166;2023-02-08T15:09:43;6.00;1.00
15630;DHT22;7914;50.842;0.166;2023-02-08T15:14:42;6.00;1.00
15630;DHT22;7914;50.842;0.166;2023-02-08T15:17:42;6.10;1.00
15630;DHT22;7914;50.842;0.166;2023-02-08T15:20:18;6.00;1.00
15630;DHT22;7914;50.842;0.166;2023-02-08T15:22:44;5.90;30.00
15630;DHT22;7914;50.842;0.166;2023-02-08T15:25:34;5.90;1.00
15630;DHT22;7914;50.842;0.166;2023-02-08T15:28:17;5.90;1.00
15630;DHT22;7914;50.842;0.166;2023-02-08T15:30:44;5.90;1.00
15630;DHT22;7914;50.842;0.166;2023-02-08T15:33:15;5.90;1.00
15630;DHT22;7914;50.842;0.166;2023-02-08T15:35:58;5.90;1.00
15630;DHT22;7914;50.842;0.166;2023-02-08T15:38:24;5.90;99.90
15630;DHT22;7914;50.842;0.166;2023-02-08T15:41:05;5.90;1.00
15630;DHT22;7914;50.842;0.166;2023-02-08T15:43:31;5.80;1.00
15630;DHT22;7914;50.842;0.166;2023-02-08T15:46:00;5.80;1.00
15630;DHT22;7914;50.842;0.166;2023-02-08T15:48:27;5.80;99.90
15630;DHT22;7914;50.842;0.166;2023-02-08T15:50:54;5.80;99.90
15630;DHT22;7914;50.842;0.166;2023-02-08T15:53:20;5.80;99.90
15630;DHT22;7914;50.842;0.166;2023-02-08T15:55:58;5.80;99.90
15630;DHT22;7914;50.842;0.166;2023-02-08T15:58:36;5.80;99.90
15630;DHT22;7914;50.842;0.166;2023-02-08T16:01:05;5.80;99.90
15630;DHT22;7914;50.842;0.166;2023-02-08T16:03:32;5.60;99.90
15630;DHT22;7914;50.842;0.166;2023-02-08T16:06:04;5.60;1.00
15630;DHT22;7914;50.842;0.166;2023-02-08T16:08:33;5.60;1.00
15630;DHT22;7914;50.842;0.166;2023-02-08T16:11:02;5.50;1.00
15630;DHT22;7914;50.842;0.166;2023-02-08T16:13:35;5.50;1.00
15630;DHT22;7914;50.842;0.166;2023-02-08T16:18:54;5.40;1.00
15630;DHT22;7914;50.842;0.166;2023-02-08T16:26:43;5.20;1.00
15630;DHT22;7914;50.842;0.166;2023-02-08T16:29:27;5.00;99.90
15630;DHT22;7914;50.842;0.166;2023-02-08T16:32:05;4.90;99.90
15630;DHT22;7914;50.842;0.166;2023-02-08T16:34:34;4.80;99.90
15630;DHT22;7914;50.842;0.166;2023-02-08T16:37:02;4.80;99.90
15630;DHT22;7914;50.842;0.166;2023-02-08T16:40:01;4.80;1.00
15630;DHT22;7914;50.842;0.166;2023-02-08T16:42:37;4.70;1.00
15630;DHT22;7914;50.842;0.166;2023-02-08T16:50:12;4.60;1.00
15630;DHT22;7914;50.842;0.166;2023-02-08T16:52:38;4.50;1.00
15630;DHT22;7914;50.842;0.166;2023-02-08T16:55:05;4.50;1.00
15630;DHT22;7914;50.842;0.166;2023-02-08T16:57:42;4.40;1.00
15630;DHT22;7914;50.842;0.166;2023-02-08T17:00:20;4.40;1.00
15630;DHT22;7914;50.842;0.166;2023-02-08T17:02:46;4.50;1.00
15630;DHT22;7914;50.842;0.166;2023-02-08T17:05:12;4.50;1.00
15630;DHT22;7914;50.842;0.166;2023-02-08T17:07:38;4.50;1.00
15630;DHT22;7914;50.842;0.166;2023-02-08T17:10:06;4.40;1.00
15630;DHT22;7914;50.842;0.166;2023-02-08T17:12:32;4.30;1.00
15630;DHT22;7914;50.842;0.166;2023-02-08T17:14:58;4.30;1.00
15630;DHT22;7914;50.842;0.166;2023-02-08T17:17:23;4.20;1.00
15630;DHT22;7914;50.842;0.166;2023-02-08T17:19:49;4.10;1.00
15630;DHT22;7914;50.842;0.166;2023-02-08T17:22:16;5.10;1.00
15630;DHT22;7914;50.842;0.166;2023-02-08T17:24:41;3.90;1.00
15630;DHT22;7914;50.842;0.166;2023-02-08T17:27:11;3.80;1.00
15630;DHT22;7914;50.842;0.166;2023-02-08T17:29:38;3.70;44.00
15630;DHT22;7914;50.842;0.166;2023-02-08T17:32:04;3.70;91.80
15630;DHT22;7914;50.842;0.166;2023-02-08T17:34:29;3.50;99.90
15630;DHT22;7914;50.842;0.166;2023-02-08T17:36:55;3.50;99.90
15630;DHT22;7914;50.842;0.166;2023-02-08T17:39:21;3.30;99.90
15630;DHT22;7914;50.842;0.166;2023-02-08T17:41:46;3.20;99.90
15630;DHT22;7914;50.842;0.166;2023-02-08T17:44:12;3.00;99.90
15630;DHT22;7914;50.842;0.166;2023-02-08T17:46:39;2.80;99.90
15630;DHT22;7914;50.842;0.166;2023-02-08T17:49:05;2.80;1.00
15630;DHT22;7914;50.842;0.166;2023-02-08T17:51:31;2.60;1.00
15630;DHT22;7914;50.842;0.166;2023-02-08T17:53:57;2.60;1.00
15630;DHT22;7914;50.842;0.166;2023-02-08T17:56:27;4.00;1.00
15630;DHT22;7914;50.842;0.166;2023-02-08T17:58:54;2.50;1.00
15630;DHT22;7914;50.842;0.166;2023-02-08T18:01:24;2.30;1.00
15630;DHT22;7914;50.842;0.166;2023-02-08T18:03:51;2.20;1.00
15630;DHT22;7914;50.842;0.166;2023-02-08T18:06:20;2.20;1.00
15630;DHT22;7914;50.842;0.166;2023-02-08T18:08:47;2.20;1.00
15630;DHT22;7914;50.842;0.166;2023-02-08T18:11:14;2.10;1.00
15630;DHT22;7914;50.842;0.166;2023-02-08T18:13:43;2.00;1.00
15630;DHT22;7914;50.842;0.166;2023-02-08T18:16:11;1.80;1.00
15630;DHT22;7914;50.842;0.166;2023-02-08T18:18:37;1.70;1.00
15630;DHT22;7914;50.842;0.166;2023-02-08T18:21:11;1.70;1.00
15630;DHT22;7914;50.842;0.166;2023-02-08T18:23:38;1.70;1.00
15630;DHT22;7914;50.842;0.166;2023-02-08T18:26:06;1.70;1.00
15630;DHT22;7914;50.842;0.166;2023-02-08T18:28:32;1.80;1.00
15630;DHT22;7914;50.842;0.166;2023-02-08T18:31:05;1.80;1.00
15630;DHT22;7914;50.842;0.166;2023-02-08T18:33:31;1.70;1.00
15630;DHT22;7914;50.842;0.166;2023-02-08T18:35:57;1.70;1.00
15630;DHT22;7914;50.842;0.166;2023-02-08T18:38:23;1.70;1.00